createdAt,value
2022-12-06T00:02:13.694Z,15.75
2022-12-06T00:04:40.734Z,22.00
2022-12-06T00:07:07.395Z,16.95
2022-12-06T00:09:35.485Z,14.85
2022-12-06T00:12:02.257Z,15.02
2022-12-06T00:14:28.970Z,14.75
2022-12-06T00:16:55.857Z,14.63
2022-12-06T00:19:23.979Z,13.30
2022-12-06T00:21:51.641Z,17.80
2022-12-06T00:24:20.535Z,19.63
2022-12-06T00:26:50.227Z,17.63
2022-12-06T00:29:19.181Z,17.80
2022-12-06T00:31:46.131Z,17.67
2022-12-06T00:34:13.181Z,13.88
2022-12-06T00:36:41.503Z,16.77
2022-12-06T00:39:10.435Z,14.43
2022-12-06T00:41:37.434Z,17.98
2022-12-06T00:44:05.853Z,16.65
2022-12-06T00:46:34.112Z,14.77
2022-12-06T00:49:02.865Z,15.75
2022-12-06T00:51:31.571Z,18.10
2022-12-06T00:53:59.164Z,16.15
2022-12-06T00:56:26.117Z,14.68
2022-12-06T00:58:52.770Z,14.80
2022-12-06T01:01:22.781Z,15.73
2022-12-06T01:03:50.817Z,16.33
2022-12-06T01:06:18.857Z,14.82
2022-12-06T01:08:45.535Z,20.88
2022-12-06T01:11:14.857Z,17.42
2022-12-06T01:13:41.565Z,18.25
2022-12-06T01:16:11.116Z,17.25
2022-12-06T01:18:40.281Z,17.55
2022-12-06T01:21:08.731Z,16.88
2022-12-06T01:23:35.365Z,16.77
2022-12-06T01:26:02.149Z,18.33
2022-12-06T01:28:29.210Z,16.10
2022-12-06T01:30:55.929Z,14.68
2022-12-06T01:33:22.986Z,14.90
2022-12-06T01:35:51.169Z,15.77
2022-12-06T01:38:17.830Z,18.13
2022-12-06T01:40:45.962Z,17.40
2022-12-06T01:43:32.409Z,16.75
2022-12-06T01:46:04.079Z,16.00
2022-12-06T01:48:31.074Z,16.90
2022-12-06T01:51:00.272Z,13.48
2022-12-06T01:53:27.604Z,14.90
2022-12-06T01:55:54.871Z,18.98
2022-12-06T01:58:29.653Z,15.65
2022-12-06T02:00:56.352Z,15.95
2022-12-06T02:03:26.698Z,14.77
2022-12-06T02:05:54.016Z,16.10
2022-12-06T02:08:22.814Z,16.23
2022-12-06T02:10:49.717Z,15.15
2022-12-06T02:13:16.707Z,14.68
2022-12-06T02:15:53.644Z,16.45
2022-12-06T02:18:29.489Z,13.30
2022-12-06T02:21:04.618Z,15.88
2022-12-06T02:23:48.258Z,15.65
2022-12-06T02:26:36.505Z,14.23
2022-12-06T02:29:36.422Z,13.93
2022-12-06T02:32:10.601Z,14.45
2022-12-06T02:34:42.973Z,15.48
2022-12-06T02:37:12.504Z,13.70
2022-12-06T02:39:46.988Z,16.85
2022-12-06T02:42:18.886Z,14.27
2022-12-06T02:47:18.592Z,14.63
2022-12-06T02:49:47.661Z,15.18
2022-12-06T02:52:15.300Z,16.05
2022-12-06T02:54:45.544Z,17.30
2022-12-06T02:57:12.186Z,15.63
2022-12-06T02:59:38.929Z,14.98
2022-12-06T03:02:10.750Z,16.75
2022-12-06T03:07:26.552Z,15.60
2022-12-06T03:10:09.995Z,16.02
2022-12-06T03:12:45.828Z,13.43
2022-12-06T03:15:19.695Z,16.25
2022-12-06T03:17:49.903Z,15.40
2022-12-06T03:20:21.752Z,17.25
2022-12-06T03:25:18.485Z,14.65
2022-12-06T03:27:48.128Z,14.38
2022-12-06T03:30:15.769Z,18.17
2022-12-06T03:32:46.589Z,14.00
2022-12-06T03:35:17.803Z,15.23
2022-12-06T03:37:49.798Z,15.63
2022-12-06T03:42:44.791Z,14.57
2022-12-06T03:45:12.387Z,14.07
2022-12-06T03:47:45.957Z,13.27
2022-12-06T03:50:19.129Z,16.08
2022-12-06T03:52:47.320Z,16.17
2022-12-06T03:55:13.822Z,20.02
2022-12-06T03:57:40.425Z,13.70
2022-12-06T04:00:08.244Z,16.67
2022-12-06T04:02:38.039Z,16.30
2022-12-06T04:05:05.835Z,15.30
2022-12-06T04:07:32.645Z,17.20
2022-12-06T04:10:01.224Z,16.33
2022-12-06T04:12:28.605Z,23.63
2022-12-06T04:14:55.238Z,14.70
2022-12-06T04:17:22.090Z,14.98
2022-12-06T04:19:58.438Z,14.00
2022-12-06T04:22:25.088Z,13.75
2022-12-06T04:24:51.706Z,21.05
2022-12-06T04:27:19.739Z,14.48
2022-12-06T04:29:46.374Z,15.60
2022-12-06T04:32:12.996Z,16.40
2022-12-06T04:34:39.531Z,15.15
2022-12-06T04:37:06.668Z,16.60
2022-12-06T04:39:33.578Z,17.17
2022-12-06T04:42:00.805Z,13.88
2022-12-06T04:44:28.864Z,13.23
2022-12-06T04:46:55.573Z,13.70
2022-12-06T04:49:22.088Z,18.90
2022-12-06T04:51:48.878Z,13.48
2022-12-06T04:54:15.382Z,16.70
2022-12-06T04:56:41.945Z,16.63
2022-12-06T04:59:08.558Z,15.63
2022-12-06T05:01:36.636Z,16.58
2022-12-06T05:04:03.289Z,13.73
2022-12-06T05:06:29.886Z,13.82
2022-12-06T05:08:56.432Z,21.05
2022-12-06T05:11:23.052Z,17.48
2022-12-06T05:13:49.673Z,14.63
2022-12-06T05:16:16.371Z,16.30
2022-12-06T05:18:44.389Z,14.25
2022-12-06T05:21:13.590Z,19.90
2022-12-06T05:23:40.743Z,19.70
2022-12-06T05:26:10.467Z,22.75
2022-12-06T05:28:37.101Z,16.05
2022-12-06T05:31:04.111Z,25.50
2022-12-06T05:33:30.976Z,21.25
2022-12-06T05:35:59.116Z,14.02
2022-12-06T05:38:25.897Z,16.63
2022-12-06T05:40:52.621Z,16.48
2022-12-06T05:43:19.432Z,18.40
2022-12-06T05:45:46.104Z,20.42
2022-12-06T05:48:12.654Z,18.35
2022-12-06T05:50:39.470Z,15.93
2022-12-06T05:53:07.410Z,26.92
2022-12-06T05:55:33.923Z,23.52
2022-12-06T05:58:00.477Z,18.35
2022-12-06T06:00:26.997Z,16.92
2022-12-06T06:02:53.764Z,19.85
2022-12-06T06:05:20.504Z,19.20
2022-12-06T06:07:47.096Z,25.98
2022-12-06T06:10:15.553Z,18.48
2022-12-06T06:12:42.207Z,18.33
2022-12-06T06:15:09.387Z,19.75
2022-12-06T06:17:35.923Z,26.67
2022-12-06T06:20:03.017Z,24.67
2022-12-06T06:22:29.662Z,22.83
2022-12-06T06:24:56.261Z,25.98
2022-12-06T06:27:24.274Z,28.50
2022-12-06T06:29:50.824Z,26.88
2022-12-06T06:32:17.393Z,40.78
2022-12-06T06:34:43.986Z,25.17
2022-12-06T06:37:10.568Z,25.42
2022-12-06T06:39:37.077Z,26.90
2022-12-06T06:42:03.980Z,30.48
2022-12-06T06:44:31.863Z,26.27
2022-12-06T06:46:58.481Z,24.77
2022-12-06T06:49:25.066Z,30.75
2022-12-06T06:51:53.885Z,33.22
2022-12-06T06:54:20.584Z,25.65
2022-12-06T06:56:47.341Z,35.13
2022-12-06T06:59:13.866Z,30.95
2022-12-06T07:01:41.797Z,34.60
2022-12-06T07:04:08.384Z,23.75
2022-12-06T07:06:34.991Z,26.15
2022-12-06T07:09:03.028Z,21.98
2022-12-06T07:11:29.642Z,21.77
2022-12-06T07:13:56.209Z,28.58
2022-12-06T07:16:22.868Z,26.60
2022-12-06T07:18:50.796Z,25.60
2022-12-06T07:21:17.715Z,21.42
2022-12-06T07:23:44.512Z,26.48
2022-12-06T07:26:13.229Z,22.95
2022-12-06T07:28:41.203Z,20.98
2022-12-06T07:31:09.204Z,25.90
2022-12-06T07:33:35.993Z,24.38
2022-12-06T07:36:12.002Z,38.70
2022-12-06T07:38:40.389Z,21.70
2022-12-06T07:41:09.491Z,24.40
2022-12-06T07:43:36.216Z,32.40
2022-12-06T07:46:02.856Z,26.70
2022-12-06T07:48:29.720Z,32.47
2022-12-06T07:50:56.236Z,25.83
2022-12-06T07:53:24.282Z,23.95
2022-12-06T07:55:50.782Z,29.83
2022-12-06T07:58:17.389Z,23.55
2022-12-06T08:00:44.859Z,33.53
2022-12-06T08:03:12.038Z,35.25
2022-12-06T08:05:38.544Z,59.63
2022-12-06T08:08:05.432Z,33.88
2022-12-06T08:10:33.330Z,35.55
2022-12-06T08:12:59.886Z,28.00
2022-12-06T08:15:26.446Z,30.40
2022-12-06T08:17:53.857Z,25.52
2022-12-06T08:20:20.419Z,32.47
2022-12-06T08:22:47.154Z,29.35
2022-12-06T08:25:13.687Z,27.38
2022-12-06T08:27:41.639Z,25.40
2022-12-06T08:30:09.006Z,23.02
2022-12-06T08:32:35.568Z,23.30
2022-12-06T08:35:02.086Z,29.27
2022-12-06T08:37:28.705Z,28.10
2022-12-06T08:39:55.261Z,22.58
2022-12-06T08:42:25.230Z,31.20
2022-12-06T08:44:53.467Z,23.63
2022-12-06T08:47:20.139Z,24.65
2022-12-06T08:49:46.682Z,23.85
2022-12-06T08:52:13.293Z,21.92
2022-12-06T08:54:39.993Z,21.45
2022-12-06T08:57:06.660Z,23.17
2022-12-06T08:59:33.362Z,25.85
2022-12-06T09:02:01.296Z,22.08
2022-12-06T09:04:27.918Z,21.25
2022-12-06T09:06:54.578Z,22.88
2022-12-06T09:09:21.304Z,26.65
2022-12-06T09:11:50.737Z,24.90
2022-12-06T09:14:21.869Z,24.48
2022-12-06T09:16:51.067Z,24.52
2022-12-06T09:19:19.774Z,30.60
2022-12-06T09:21:46.359Z,28.70
2022-12-06T09:24:14.981Z,23.20
2022-12-06T09:26:41.787Z,29.80
2022-12-06T09:29:09.208Z,30.27
2022-12-06T09:31:36.106Z,29.08
2022-12-06T09:34:02.851Z,25.60
2022-12-06T09:36:31.363Z,28.65
2022-12-06T09:39:03.355Z,23.85
2022-12-06T09:41:51.120Z,25.27
2022-12-06T09:44:40.485Z,23.20
2022-12-06T09:47:17.452Z,21.27
2022-12-06T09:49:57.185Z,21.50
2022-12-06T09:52:59.924Z,22.23
2022-12-06T09:55:40.364Z,22.92
2022-12-06T09:58:17.662Z,20.63
2022-12-06T10:00:49.216Z,21.27
2022-12-06T10:03:48.572Z,23.98
2022-12-06T10:06:18.325Z,24.40
2022-12-06T10:09:03.513Z,27.15
2022-12-06T10:11:43.696Z,27.92
2022-12-06T10:14:24.015Z,39.28
2022-12-06T10:16:55.632Z,28.17
2022-12-06T10:19:34.296Z,26.33
2022-12-06T10:22:12.205Z,24.05
2022-12-06T10:24:56.904Z,25.77
2022-12-06T10:27:29.290Z,36.72
2022-12-06T10:29:59.154Z,25.25
2022-12-06T10:32:50.164Z,31.65
2022-12-06T10:35:21.237Z,34.97
2022-12-06T10:37:59.766Z,25.70
2022-12-06T10:40:31.229Z,28.58
2022-12-06T10:43:02.349Z,34.58
2022-12-06T10:45:34.769Z,24.93
2022-12-06T10:48:07.293Z,30.90
2022-12-06T10:50:37.906Z,28.63
2022-12-06T10:53:11.540Z,26.25
2022-12-06T10:55:46.790Z,30.15
2022-12-06T10:58:22.365Z,29.08
2022-12-06T11:00:56.427Z,31.35
2022-12-06T11:03:29.826Z,30.02
2022-12-06T11:06:05.296Z,29.23
2022-12-06T11:08:36.852Z,29.60
2022-12-06T11:11:10.189Z,31.33
2022-12-06T11:13:41.658Z,28.25
2022-12-06T11:16:14.468Z,37.00
2022-12-06T11:18:42.395Z,29.98
2022-12-06T11:21:24.351Z,24.98
2022-12-06T11:23:56.804Z,22.92
2022-12-06T11:26:34.723Z,31.58
2022-12-06T11:29:03.997Z,21.85
2022-12-06T11:31:33.024Z,24.65
2022-12-06T11:34:00.297Z,24.27
2022-12-06T11:36:27.280Z,23.98
2022-12-06T11:38:53.967Z,20.70
2022-12-06T11:41:23.948Z,16.52
2022-12-06T11:43:53.834Z,23.63
2022-12-06T11:46:21.440Z,21.85
2022-12-06T11:48:48.418Z,19.30
2022-12-06T11:51:19.029Z,19.83
2022-12-06T11:53:56.143Z,20.45
2022-12-06T11:56:25.067Z,23.00
2022-12-06T11:59:03.198Z,28.35
2022-12-06T12:01:42.040Z,29.63
2022-12-06T12:04:30.068Z,19.85
2022-12-06T12:06:59.904Z,19.45
2022-12-06T12:09:30.440Z,19.13
2022-12-06T12:12:02.317Z,25.65
2022-12-06T12:17:02.584Z,20.23
2022-12-06T12:19:35.721Z,25.52
2022-12-06T12:22:16.142Z,25.02
2022-12-06T12:27:46.174Z,23.60
2022-12-06T12:30:28.896Z,27.98
2022-12-06T12:33:14.495Z,26.00
2022-12-06T12:35:43.163Z,21.67
2022-12-06T12:38:16.579Z,23.52
2022-12-06T12:40:45.705Z,26.23
2022-12-06T12:43:17.785Z,22.58
2022-12-06T12:46:14.234Z,22.35
2022-12-06T12:48:43.289Z,20.63
2022-12-06T12:51:22.510Z,22.10
2022-12-06T12:53:55.142Z,21.17
2022-12-06T12:56:22.483Z,25.38
2022-12-06T12:58:51.894Z,22.50
2022-12-06T13:01:39.645Z,22.88
2022-12-06T13:04:15.229Z,25.45
2022-12-06T13:06:49.044Z,24.73
2022-12-06T13:09:24.097Z,23.77
2022-12-06T13:11:56.434Z,23.75
2022-12-06T13:14:26.182Z,25.55
2022-12-06T13:16:58.707Z,24.30
2022-12-06T13:19:34.438Z,26.30
2022-12-06T13:22:04.326Z,24.15
2022-12-06T13:24:35.925Z,21.35
2022-12-06T13:27:07.456Z,25.85
2022-12-06T13:29:38.640Z,26.35
2022-12-06T13:32:13.972Z,22.90
2022-12-06T13:34:47.620Z,23.60
2022-12-06T13:37:28.295Z,24.95
2022-12-06T13:39:55.826Z,21.45
2022-12-06T13:42:41.399Z,23.17
2022-12-06T13:45:38.951Z,24.48
2022-12-06T13:48:38.504Z,23.15
2022-12-06T13:51:10.380Z,22.13
2022-12-06T13:56:28.952Z,27.00
2022-12-06T13:58:59.486Z,25.00
2022-12-06T14:01:40.983Z,22.95
2022-12-06T14:06:59.417Z,23.02
2022-12-06T14:09:28.270Z,28.80
2022-12-06T14:11:59.443Z,20.25
2022-12-06T14:14:26.766Z,27.77
2022-12-06T14:16:56.888Z,30.30
2022-12-06T14:19:32.035Z,39.97
2022-12-06T14:22:02.183Z,24.25
2022-12-06T14:24:33.106Z,25.98
2022-12-06T14:27:04.653Z,20.73
2022-12-06T14:29:31.724Z,21.45
2022-12-06T14:31:58.346Z,21.77
2022-12-06T14:34:26.153Z,18.55
2022-12-06T14:36:53.719Z,23.27
2022-12-06T14:39:25.186Z,23.98
2022-12-06T14:41:53.650Z,24.42
2022-12-06T14:44:27.136Z,22.33
2022-12-06T14:46:54.803Z,22.33
2022-12-06T14:49:22.919Z,21.85
2022-12-06T14:51:51.099Z,21.33
2022-12-06T14:54:18.503Z,19.58
2022-12-06T14:56:46.546Z,19.80
2022-12-06T14:59:13.173Z,17.30
2022-12-06T15:01:47.025Z,16.20
2022-12-06T15:04:25.885Z,13.05
2022-12-06T15:06:54.247Z,12.98
2022-12-06T15:09:20.876Z,18.20
2022-12-06T15:11:49.270Z,13.77
2022-12-06T15:14:17.719Z,16.80
2022-12-06T15:16:46.374Z,14.75
2022-12-06T15:19:14.420Z,13.57
2022-12-06T15:21:41.108Z,20.65
2022-12-06T15:24:18.612Z,13.00
2022-12-06T15:26:45.501Z,10.45
2022-12-06T15:29:13.697Z,12.05
2022-12-06T15:31:42.405Z,14.93
2022-12-06T15:34:27.673Z,10.38
2022-12-06T15:37:15.262Z,13.00
2022-12-06T15:39:43.010Z,12.07
2022-12-06T15:42:15.819Z,13.20
2022-12-06T15:44:48.825Z,17.08
2022-12-06T15:47:16.929Z,14.15
2022-12-06T15:49:43.566Z,14.60
2022-12-06T15:52:15.101Z,13.02
2022-12-06T15:54:41.764Z,13.98
2022-12-06T15:57:08.319Z,14.60
2022-12-06T15:59:34.965Z,14.63
2022-12-06T16:02:04.316Z,13.10
2022-12-06T16:04:31.138Z,13.02
2022-12-06T16:06:57.725Z,12.68
2022-12-06T16:09:26.141Z,15.02
2022-12-06T16:11:52.671Z,18.52
2022-12-06T16:14:19.280Z,16.50
2022-12-06T16:16:45.801Z,16.00
2022-12-06T16:19:13.776Z,16.80
2022-12-06T16:21:51.973Z,13.88
2022-12-06T16:24:18.634Z,17.02
2022-12-06T16:26:46.098Z,17.65
2022-12-06T16:29:15.348Z,15.98
2022-12-06T16:31:41.994Z,13.35
2022-12-06T16:34:09.237Z,11.07
2022-12-06T16:36:56.668Z,12.13
2022-12-06T16:39:23.585Z,15.10
2022-12-06T16:41:50.132Z,15.40
2022-12-06T16:44:16.762Z,13.75
2022-12-06T16:46:43.324Z,11.90
2022-12-06T16:49:44.821Z,15.32
2022-12-06T16:52:03.442Z,11.27
2022-12-06T16:54:29.950Z,13.30
2022-12-06T16:56:56.534Z,12.30
2022-12-06T16:59:23.113Z,10.25
2022-12-06T17:01:51.712Z,10.20
2022-12-06T17:04:18.591Z,11.93
2022-12-06T17:06:45.282Z,12.10
2022-12-06T17:09:13.884Z,11.68
2022-12-06T17:11:41.131Z,11.85
2022-12-06T17:14:07.921Z,9.45
2022-12-06T17:16:34.936Z,10.32
2022-12-06T17:19:01.965Z,10.88
2022-12-06T17:21:28.615Z,14.38
2022-12-06T17:23:56.539Z,12.35
2022-12-06T17:26:24.473Z,14.85
2022-12-06T17:28:51.119Z,16.23
2022-12-06T17:31:17.670Z,10.00
2022-12-06T17:33:44.489Z,11.32
2022-12-06T17:36:13.008Z,9.93
2022-12-06T17:38:40.386Z,10.90
2022-12-06T17:41:13.702Z,13.85
2022-12-06T17:43:41.667Z,13.32
2022-12-06T17:46:08.800Z,12.18
2022-12-06T17:48:40.159Z,12.68
2022-12-06T17:51:09.667Z,16.90
2022-12-06T17:53:36.208Z,12.52
2022-12-06T17:56:24.712Z,10.77
2022-12-06T17:58:54.530Z,13.10
2022-12-06T18:01:22.195Z,11.50
2022-12-06T18:03:51.078Z,11.40
2022-12-06T18:06:18.168Z,12.75
2022-12-06T18:08:44.945Z,13.43
2022-12-06T18:11:11.692Z,10.40
2022-12-06T18:13:38.256Z,14.38
2022-12-06T18:16:15.264Z,18.15
2022-12-06T18:18:42.842Z,15.27
2022-12-06T18:21:09.719Z,13.30
2022-12-06T18:23:40.901Z,13.45
2022-12-06T18:26:16.121Z,12.57
2022-12-06T18:28:44.497Z,15.40
2022-12-06T18:31:12.492Z,17.45
2022-12-06T18:33:40.456Z,13.18
2022-12-06T18:36:08.206Z,17.13
2022-12-06T18:38:35.882Z,17.90
2022-12-06T18:41:04.327Z,14.63
2022-12-06T18:43:30.918Z,15.73
2022-12-06T18:45:58.650Z,17.25
2022-12-06T18:48:25.435Z,25.88
2022-12-06T18:50:53.388Z,16.92
2022-12-06T18:53:20.099Z,19.30
2022-12-06T18:55:46.948Z,16.77
2022-12-06T18:58:13.760Z,21.15
2022-12-06T19:00:41.097Z,17.13
2022-12-06T19:03:08.066Z,17.38
2022-12-06T19:06:01.464Z,18.13
2022-12-06T19:08:22.660Z,17.73
2022-12-06T19:10:49.190Z,19.15
2022-12-06T19:13:15.816Z,19.75
2022-12-06T19:15:42.470Z,19.80
2022-12-06T19:18:09.031Z,17.33
2022-12-06T19:20:35.523Z,19.88
2022-12-06T19:23:11.729Z,20.05
2022-12-06T19:25:39.653Z,17.92
2022-12-06T19:28:06.450Z,18.85
2022-12-06T19:30:33.317Z,21.00
2022-12-06T19:32:59.866Z,41.17
2022-12-06T19:35:26.558Z,32.63
2022-12-06T19:37:53.171Z,36.78
2022-12-06T19:40:19.775Z,18.95
2022-12-06T19:42:47.623Z,20.05
2022-12-06T19:45:14.599Z,40.08
2022-12-06T19:47:41.095Z,18.05
2022-12-06T19:50:08.843Z,25.20
2022-12-06T19:52:35.379Z,29.38
2022-12-06T19:55:01.923Z,22.75
2022-12-06T19:57:28.405Z,24.63
2022-12-06T19:59:56.434Z,19.10
2022-12-06T20:02:23.017Z,22.67
2022-12-06T20:04:49.799Z,29.25
2022-12-06T20:07:16.660Z,30.45
2022-12-06T20:09:43.645Z,24.35
2022-12-06T20:12:11.279Z,18.90
2022-12-06T20:14:39.609Z,19.83
2022-12-06T20:17:09.416Z,19.63
2022-12-06T20:19:36.118Z,19.88
2022-12-06T20:22:03.282Z,18.20
2022-12-06T20:24:30.144Z,19.50
2022-12-06T20:26:56.683Z,19.88
2022-12-06T20:29:23.807Z,22.08
2022-12-06T20:31:50.692Z,23.50
2022-12-06T20:34:19.338Z,19.30
2022-12-06T20:36:46.302Z,17.92
2022-12-06T20:39:19.081Z,20.95
2022-12-06T20:41:47.493Z,21.00
2022-12-06T20:44:14.294Z,20.58
2022-12-06T20:46:41.063Z,20.42
2022-12-06T20:49:07.707Z,20.52
2022-12-06T20:51:36.126Z,19.75
2022-12-06T20:54:04.959Z,24.58
2022-12-06T20:56:34.871Z,20.90
2022-12-06T20:59:02.418Z,23.25
2022-12-06T21:01:31.542Z,21.90
2022-12-06T21:03:58.301Z,21.80
2022-12-06T21:06:26.217Z,21.15
2022-12-06T21:08:55.276Z,21.67
2022-12-06T21:11:24.093Z,26.02
2022-12-06T21:13:51.653Z,22.75
2022-12-06T21:16:21.130Z,78.30
2022-12-06T21:18:47.740Z,39.58
2022-12-06T21:21:21.001Z,30.73
2022-12-06T21:23:47.615Z,30.80
2022-12-06T21:26:15.522Z,28.92
2022-12-06T21:28:42.118Z,25.85
2022-12-06T21:31:08.774Z,26.92
2022-12-06T21:33:35.603Z,26.77
2022-12-06T21:36:03.633Z,28.77
2022-12-06T21:38:30.886Z,26.80
2022-12-06T21:41:03.492Z,31.25
2022-12-06T21:43:31.610Z,25.48
2022-12-06T21:46:02.879Z,20.98
2022-12-06T21:48:29.663Z,28.92
2022-12-06T21:51:00.584Z,30.13
2022-12-06T21:53:27.192Z,21.37
2022-12-06T21:55:53.915Z,23.58
2022-12-06T21:58:20.537Z,23.50
2022-12-06T22:00:48.497Z,21.30
2022-12-06T22:03:20.973Z,25.10
2022-12-06T22:05:49.483Z,23.88
2022-12-06T22:08:16.124Z,20.65
2022-12-06T22:10:42.891Z,17.35
2022-12-06T22:13:10.004Z,19.90
2022-12-06T22:15:37.326Z,20.90
2022-12-06T22:18:05.517Z,19.52
2022-12-06T22:20:32.481Z,19.48
2022-12-06T22:22:59.836Z,16.95
2022-12-06T22:25:26.686Z,16.45
2022-12-06T22:27:53.645Z,19.60
2022-12-06T22:30:20.536Z,19.85
2022-12-06T22:32:47.072Z,20.77
2022-12-06T22:35:15.284Z,19.65
2022-12-06T22:37:41.856Z,16.17
2022-12-06T22:40:09.110Z,21.25
2022-12-06T22:42:35.872Z,17.45
2022-12-06T22:45:02.573Z,18.92
2022-12-06T22:47:29.098Z,15.93
2022-12-06T22:49:55.837Z,18.45
2022-12-06T22:52:24.297Z,17.38
2022-12-06T22:54:51.673Z,18.52
2022-12-06T22:57:18.290Z,15.98
2022-12-06T22:59:44.900Z,16.20
2022-12-06T23:02:11.487Z,16.63
2022-12-06T23:04:38.247Z,17.05
2022-12-06T23:07:04.796Z,16.30
2022-12-06T23:09:32.751Z,20.05
2022-12-06T23:11:59.318Z,20.92
2022-12-06T23:14:25.990Z,18.10
2022-12-06T23:16:52.632Z,19.67
2022-12-06T23:19:19.278Z,17.35
2022-12-06T23:21:46.185Z,18.08
2022-12-06T23:24:14.092Z,17.90
2022-12-06T23:26:44.283Z,17.13
2022-12-06T23:29:11.519Z,19.50
2022-12-06T23:31:40.981Z,18.55
2022-12-06T23:34:11.770Z,16.52
2022-12-06T23:36:38.665Z,18.20
2022-12-06T23:39:06.472Z,21.52
2022-12-06T23:41:34.081Z,23.23
2022-12-06T23:44:02.857Z,19.75
2022-12-06T23:46:31.518Z,17.95
2022-12-06T23:48:58.978Z,21.75
2022-12-06T23:51:27.389Z,20.33
2022-12-06T23:53:55.581Z,18.02
2022-12-06T23:56:22.621Z,19.77
2022-12-06T23:58:50.277Z,19.67
